createdAt,value
2022-10-08T00:00:46.210Z,100120.81
2022-10-08T00:03:13.965Z,100123.38
2022-10-08T00:05:41.102Z,100114.75
2022-10-08T00:08:08.361Z,100107.00
2022-10-08T00:10:35.029Z,100113.91
2022-10-08T00:13:02.553Z,100114.78
2022-10-08T00:15:29.353Z,100115.63
2022-10-08T00:17:56.243Z,100120.00
2022-10-08T00:20:22.834Z,100112.22
2022-10-08T00:22:49.963Z,100114.81
2022-10-08T00:25:16.677Z,100120.88
2022-10-08T00:27:43.346Z,100120.84
2022-10-08T00:30:10.185Z,100118.31
2022-10-08T00:32:36.796Z,100124.34
2022-10-08T00:35:03.721Z,100125.22
2022-10-08T00:37:30.315Z,100125.22
2022-10-08T00:39:56.996Z,100114.88
2022-10-08T00:42:24.776Z,100114.91
2022-10-08T00:44:56.206Z,100111.44
2022-10-08T00:47:40.053Z,100110.56
2022-10-08T00:51:03.554Z,100122.69
2022-10-08T00:53:30.713Z,100115.81
2022-10-08T00:55:57.305Z,100116.63
2022-10-08T00:58:25.896Z,100130.41
2022-10-08T01:00:52.955Z,100113.25
2022-10-08T01:03:19.589Z,100119.25
2022-10-08T01:05:55.406Z,100132.16
2022-10-08T01:08:25.893Z,100123.47
2022-10-08T01:11:08.177Z,100122.69
2022-10-08T01:13:58.108Z,100114.06
2022-10-08T01:16:35.054Z,100116.63
2022-10-08T01:19:16.873Z,100128.66
2022-10-08T01:21:59.697Z,100120.06
2022-10-08T01:25:03.619Z,100124.34
2022-10-08T01:27:42.570Z,100126.13
2022-10-08T01:30:15.088Z,100127.75
2022-10-08T01:32:44.739Z,100130.34
2022-10-08T01:35:13.924Z,100123.41
2022-10-08T01:37:42.480Z,100123.44
2022-10-08T01:40:12.461Z,100132.03
2022-10-08T01:42:41.069Z,100126.88
2022-10-08T01:45:11.336Z,100130.31
2022-10-08T01:47:39.724Z,100126.88
2022-10-08T01:50:09.169Z,100129.47
2022-10-08T01:52:48.818Z,100128.59
2022-10-08T01:55:20.552Z,100122.53
2022-10-08T01:57:48.022Z,100128.53
2022-10-08T02:00:15.129Z,100128.53
2022-10-08T02:02:42.833Z,100126.81
2022-10-08T02:05:12.391Z,100129.38
2022-10-08T02:07:42.348Z,100132.00
2022-10-08T02:10:08.988Z,100125.97
2022-10-08T02:12:35.622Z,100123.34
2022-10-08T02:15:03.790Z,100130.22
2022-10-08T02:17:30.931Z,100130.28
2022-10-08T02:20:02.695Z,100130.31
2022-10-08T02:22:35.900Z,100125.16
2022-10-08T02:25:21.000Z,100128.63
2022-10-08T02:28:14.173Z,100130.31
2022-10-08T02:30:43.384Z,100134.66
2022-10-08T02:33:14.074Z,100136.41
2022-10-08T02:35:44.554Z,100142.38
2022-10-08T02:38:13.527Z,100139.00
2022-10-08T02:40:42.330Z,100139.00
2022-10-08T02:43:13.155Z,100145.00
2022-10-08T02:45:46.650Z,100140.72
2022-10-08T02:48:18.542Z,100150.19
2022-10-08T02:50:47.698Z,100142.47
2022-10-08T02:53:15.404Z,100133.03
2022-10-08T02:55:41.958Z,100137.31
2022-10-08T02:58:09.949Z,100134.81
2022-10-08T03:00:39.145Z,100133.09
2022-10-08T03:03:11.459Z,100143.41
2022-10-08T03:05:39.899Z,100128.78
2022-10-08T03:08:08.073Z,100131.34
2022-10-08T03:10:36.516Z,100133.03
2022-10-08T03:13:03.603Z,100123.56
2022-10-08T03:15:33.862Z,100127.00
2022-10-08T03:18:02.511Z,100130.47
2022-10-08T03:20:31.022Z,100128.75
2022-10-08T03:23:02.011Z,100136.53
2022-10-08T03:25:28.729Z,100124.47
2022-10-08T03:27:55.447Z,100133.09
2022-10-08T03:30:22.054Z,100133.16
2022-10-08T03:32:49.131Z,100129.81
2022-10-08T03:35:16.076Z,100117.63
2022-10-08T03:37:42.823Z,100130.53
2022-10-08T03:40:09.841Z,100130.53
2022-10-08T03:42:38.105Z,100132.25
2022-10-08T03:45:05.524Z,100126.22
2022-10-08T03:47:32.180Z,100130.53
2022-10-08T03:49:58.748Z,100133.13
2022-10-08T03:52:25.330Z,100140.94
2022-10-08T03:54:51.915Z,100131.56
2022-10-08T03:57:18.516Z,100137.53
2022-10-08T03:59:45.089Z,100130.69
2022-10-08T04:02:11.716Z,100136.78
2022-10-08T04:04:38.314Z,100129.03
2022-10-08T04:07:04.977Z,100141.94
2022-10-08T04:09:31.576Z,100129.88
2022-10-08T04:11:58.318Z,100135.91
2022-10-08T04:14:24.994Z,100135.03
2022-10-08T04:16:51.652Z,100135.88
2022-10-08T04:19:18.257Z,100127.31
2022-10-08T04:21:44.943Z,100135.91
2022-10-08T04:24:11.680Z,100129.91
2022-10-08T04:26:38.290Z,100135.94
2022-10-08T04:29:04.926Z,100130.69
2022-10-08T04:31:31.573Z,100137.59
2022-10-08T04:33:58.362Z,100134.09
2022-10-08T04:36:25.447Z,100139.25
2022-10-08T04:38:52.629Z,100139.22
2022-10-08T04:41:23.323Z,100138.31
2022-10-08T04:43:50.919Z,100142.72
2022-10-08T04:46:19.405Z,100144.47
2022-10-08T04:48:50.349Z,100146.22
2022-10-08T04:51:17.592Z,100159.88
2022-10-08T04:53:44.408Z,100146.06
2022-10-08T04:56:15.675Z,100146.09
2022-10-08T04:58:42.282Z,100155.59
2022-10-08T05:01:10.538Z,100152.25
2022-10-08T05:03:38.362Z,100149.69
2022-10-08T05:06:05.736Z,100158.25
2022-10-08T05:08:32.998Z,100159.91
2022-10-08T05:10:59.581Z,100153.97
2022-10-08T05:13:26.339Z,100161.72
2022-10-08T05:15:53.123Z,100162.63
2022-10-08T05:18:19.816Z,100165.25
2022-10-08T05:20:46.382Z,100154.06
2022-10-08T05:23:13.030Z,100162.69
2022-10-08T05:25:39.596Z,100156.66
2022-10-08T05:28:06.225Z,100160.13
2022-10-08T05:30:32.971Z,100160.19
2022-10-08T05:32:59.599Z,100167.09
2022-10-08T05:35:26.229Z,100168.81
2022-10-08T05:37:52.913Z,100168.81
2022-10-08T05:40:20.572Z,100170.59
2022-10-08T05:42:47.521Z,100177.53
2022-10-08T05:45:14.475Z,100169.78
2022-10-08T05:47:41.154Z,100170.66
2022-10-08T05:50:08.057Z,100167.22
2022-10-08T05:52:34.685Z,100168.03
2022-10-08T05:55:01.269Z,100170.59
2022-10-08T05:57:28.095Z,100163.75
2022-10-08T05:59:54.671Z,100167.25
2022-10-08T06:02:22.217Z,100168.19
2022-10-08T06:04:52.034Z,100164.78
2022-10-08T06:07:18.688Z,100159.59
2022-10-08T06:09:45.239Z,100160.56
2022-10-08T06:12:13.843Z,100160.59
2022-10-08T06:14:40.970Z,100159.78
2022-10-08T06:17:07.658Z,100165.00
2022-10-08T06:19:37.341Z,100163.31
2022-10-08T06:22:04.969Z,100165.97
2022-10-08T06:24:31.696Z,100175.50
2022-10-08T06:26:58.390Z,100172.06
2022-10-08T06:29:25.023Z,100168.63
2022-10-08T06:31:51.898Z,100169.47
2022-10-08T06:34:18.579Z,100169.50
2022-10-08T06:36:45.267Z,100173.78
2022-10-08T06:39:13.685Z,100176.41
2022-10-08T06:41:40.487Z,100168.66
2022-10-08T06:44:08.440Z,100169.56
2022-10-08T06:46:35.254Z,100168.75
2022-10-08T06:49:02.355Z,100159.25
2022-10-08T06:51:29.565Z,100181.75
2022-10-08T06:53:58.701Z,100174.00
2022-10-08T06:56:28.228Z,100164.53
2022-10-08T06:58:55.005Z,100168.91
2022-10-08T07:01:23.254Z,100163.72
2022-10-08T07:03:54.323Z,100169.78
2022-10-08T07:06:21.508Z,100169.78
2022-10-08T07:08:51.520Z,100165.50
2022-10-08T07:11:18.896Z,100167.22
2022-10-08T07:13:45.886Z,100166.38
2022-10-08T07:16:20.344Z,100164.63
2022-10-08T07:18:48.861Z,100161.13
2022-10-08T07:21:16.295Z,100148.97
2022-10-08T07:23:42.977Z,100148.94
2022-10-08T07:26:14.284Z,100152.44
2022-10-08T07:28:48.304Z,100155.03
2022-10-08T07:31:16.088Z,100154.13
2022-10-08T07:33:43.054Z,100154.09
2022-10-08T07:36:11.837Z,100155.81
2022-10-08T07:38:38.876Z,100166.16
2022-10-08T07:41:05.872Z,100156.66
2022-10-08T07:43:32.689Z,100161.81
2022-10-08T07:45:59.319Z,100148.81
2022-10-08T07:48:31.557Z,100143.66
2022-10-08T07:51:11.202Z,100146.19
2022-10-08T07:53:38.555Z,100153.09
2022-10-08T07:56:05.656Z,100141.00
2022-10-08T07:58:32.332Z,100148.75
2022-10-08T08:00:59.925Z,100144.41
2022-10-08T08:03:26.669Z,100141.75
2022-10-08T08:05:54.148Z,100143.47
2022-10-08T08:08:23.530Z,100134.75
2022-10-08T08:10:55.898Z,100124.28
2022-10-08T08:13:23.032Z,100140.72
2022-10-08T08:15:56.156Z,100136.34
2022-10-08T08:18:22.750Z,100134.50
2022-10-08T08:20:49.363Z,100124.88
2022-10-08T08:23:15.974Z,100130.84
2022-10-08T08:25:42.596Z,100133.34
2022-10-08T08:28:09.226Z,100140.19
2022-10-08T08:30:36.085Z,100135.81
2022-10-08T08:33:02.722Z,100137.53
2022-10-08T08:35:29.334Z,100129.81
2022-10-08T08:37:55.955Z,100130.84
2022-10-08T08:40:22.546Z,100132.59
2022-10-08T08:42:58.188Z,100126.47
2022-10-08T08:45:45.960Z,100133.44
2022-10-08T08:48:13.670Z,100129.06
2022-10-08T08:50:44.474Z,100124.75
2022-10-08T08:53:14.703Z,100116.00
2022-10-08T08:55:43.637Z,100108.19
2022-10-08T08:58:34.930Z,100102.09
2022-10-08T09:01:04.420Z,100110.09
2022-10-08T09:03:39.631Z,100099.66
2022-10-08T09:06:10.137Z,100108.31
2022-10-08T09:08:49.940Z,100106.44
2022-10-08T09:11:17.869Z,100108.94
2022-10-08T09:13:44.476Z,100090.63
2022-10-08T09:16:12.598Z,100090.69
2022-10-08T09:18:40.442Z,100093.19
2022-10-08T09:21:07.125Z,100080.13
2022-10-08T09:23:34.397Z,100074.94
2022-10-08T09:26:21.262Z,100092.34
2022-10-08T09:28:49.797Z,100075.78
2022-10-08T09:31:25.810Z,100089.72
2022-10-08T09:33:58.471Z,100075.91
2022-10-08T09:36:29.158Z,100056.72
2022-10-08T09:38:59.877Z,100061.00
2022-10-08T09:41:28.812Z,100055.72
2022-10-08T09:44:10.490Z,100046.81
2022-10-08T09:46:37.083Z,100053.59
2022-10-08T09:49:24.030Z,100039.59
2022-10-08T09:51:50.860Z,100048.06
2022-10-08T09:54:20.767Z,100008.69
2022-10-08T09:56:53.208Z,100025.06
2022-10-08T09:59:20.808Z,100032.72
2022-10-08T10:01:47.843Z,100029.97
2022-10-08T10:04:32.049Z,99993.47
2022-10-08T10:06:59.104Z,100002.97
2022-10-08T10:09:25.687Z,99996.13
2022-10-08T10:11:59.559Z,99995.06
2022-10-08T10:14:44.770Z,99995.81
2022-10-08T10:17:19.149Z,100006.94
2022-10-08T10:19:57.302Z,99976.66
2022-10-08T10:22:26.876Z,99930.28
2022-10-08T10:25:04.641Z,99864.38
2022-10-08T10:27:34.563Z,99829.25
2022-10-08T10:30:07.245Z,99776.00
2022-10-08T10:32:36.976Z,99853.53
2022-10-08T10:35:26.741Z,99843.66
2022-10-08T10:38:08.654Z,99770.88
2022-10-08T10:40:37.217Z,99726.59
2022-10-08T10:43:17.564Z,99747.81
2022-10-08T10:46:00.603Z,99666.94
2022-10-08T10:48:27.469Z,99669.25
2022-10-08T10:50:57.117Z,99676.44
2022-10-08T10:53:36.553Z,99758.22
2022-10-08T10:56:16.052Z,99711.13
2022-10-08T10:59:02.659Z,99681.97
2022-10-08T11:01:52.091Z,99712.47
2022-10-08T11:04:19.037Z,99769.31
2022-10-08T11:07:05.283Z,99722.66
2022-10-08T11:09:41.064Z,99702.91
2022-10-08T11:12:26.409Z,99679.19
2022-10-08T11:14:59.493Z,99720.69
2022-10-08T11:17:38.369Z,99775.41
2022-10-08T11:20:23.132Z,99776.53
2022-10-08T11:23:10.201Z,99759.31
2022-10-08T11:26:10.767Z,99653.69
2022-10-08T11:28:46.282Z,99560.59
2022-10-08T11:31:13.159Z,99689.66
2022-10-08T11:33:40.040Z,99655.19
2022-10-08T11:36:06.646Z,99667.25
2022-10-08T11:38:40.441Z,99651.28
2022-10-08T11:41:10.123Z,99634.16
2022-10-08T11:43:43.102Z,99665.16
2022-10-08T11:46:29.963Z,99707.50
2022-10-08T11:49:11.670Z,99716.78
2022-10-08T11:51:50.003Z,99704.06
2022-10-08T11:54:16.959Z,99704.47
2022-10-08T11:57:09.746Z,99694.91
2022-10-08T11:59:44.746Z,99688.63
2022-10-08T12:02:29.869Z,99742.66
2022-10-08T12:04:58.820Z,99701.50
2022-10-08T12:07:36.249Z,99627.31
2022-10-08T12:10:05.975Z,99713.88
2022-10-08T12:12:51.080Z,99754.81
2022-10-08T12:15:23.805Z,99605.81
2022-10-08T12:17:51.892Z,99619.50
2022-10-08T12:20:25.922Z,99681.69
2022-10-08T12:23:12.293Z,99635.25
2022-10-08T12:25:40.831Z,99715.91
2022-10-08T12:28:19.656Z,99705.53
2022-10-08T12:30:50.708Z,99698.63
2022-10-08T12:33:17.760Z,99682.19
2022-10-08T12:35:53.312Z,99760.44
2022-10-08T12:38:33.165Z,99785.66
2022-10-08T12:41:07.048Z,99781.53
2022-10-08T12:43:56.859Z,99794.66
2022-10-08T12:46:43.445Z,99765.63
2022-10-08T12:49:38.744Z,99761.88
2022-10-08T12:52:11.412Z,99729.41
2022-10-08T12:54:48.860Z,99724.00
2022-10-08T12:57:20.513Z,99649.31
2022-10-08T12:59:47.604Z,99653.41
2022-10-08T13:02:32.485Z,99599.94
2022-10-08T13:04:59.120Z,99638.03
2022-10-08T13:07:30.753Z,99707.69
2022-10-08T13:09:59.154Z,99750.97
2022-10-08T13:12:25.953Z,99768.78
2022-10-08T13:14:59.855Z,99769.34
2022-10-08T13:17:27.605Z,99808.19
2022-10-08T13:20:04.964Z,99829.38
2022-10-08T13:22:31.537Z,99844.59
2022-10-08T13:24:58.162Z,99853.97
2022-10-08T13:27:27.036Z,99841.78
2022-10-08T13:29:54.171Z,99857.03
2022-10-08T13:32:31.680Z,99894.09
2022-10-08T13:35:03.194Z,99912.41
2022-10-08T13:37:33.486Z,99936.38
2022-10-08T13:40:02.144Z,99957.84
2022-10-08T13:42:32.857Z,99975.38
2022-10-08T13:45:00.559Z,99986.81
2022-10-08T13:47:27.953Z,99986.06
2022-10-08T13:50:01.980Z,99959.78
2022-10-08T13:52:32.592Z,99957.25
2022-10-08T13:55:06.804Z,99934.56
2022-10-08T13:57:33.610Z,99919.53
2022-10-08T14:00:00.219Z,99913.75
2022-10-08T14:02:26.840Z,99896.56
2022-10-08T14:04:53.712Z,99892.50
2022-10-08T14:07:31.844Z,99891.19
2022-10-08T14:10:00.292Z,99880.19
2022-10-08T14:12:28.784Z,99885.59
2022-10-08T14:14:55.781Z,99870.16
2022-10-08T14:17:22.561Z,99854.66
2022-10-08T14:19:49.735Z,99836.41
2022-10-08T14:22:16.678Z,99823.44
2022-10-08T14:24:43.599Z,99831.50
2022-10-08T14:27:10.378Z,99809.97
2022-10-08T14:29:37.142Z,99812.75
2022-10-08T14:32:04.690Z,99810.34
2022-10-08T14:34:31.638Z,99794.81
2022-10-08T14:36:58.352Z,99792.28
2022-10-08T14:39:26.014Z,99788.97
2022-10-08T14:41:53.130Z,99780.34
2022-10-08T14:44:22.390Z,99784.78
2022-10-08T14:46:49.389Z,99777.91
2022-10-08T14:49:16.455Z,99772.78
2022-10-08T14:51:43.328Z,99776.16
2022-10-08T14:54:10.295Z,99776.25
2022-10-08T14:56:38.008Z,99772.00
2022-10-08T14:59:05.345Z,99771.25
2022-10-08T15:01:32.177Z,99774.88
2022-10-08T15:03:59.009Z,99774.16
2022-10-08T15:06:25.673Z,99771.69
2022-10-08T15:08:52.337Z,99771.84
2022-10-08T15:11:18.938Z,99772.81
2022-10-08T15:13:45.621Z,99770.31
2022-10-08T15:16:13.315Z,99768.66
2022-10-08T15:18:40.235Z,99773.06
2022-10-08T15:21:08.033Z,99772.16
2022-10-08T15:23:34.701Z,99768.81
2022-10-08T15:26:05.898Z,99771.47
2022-10-08T15:28:35.167Z,99775.84
2022-10-08T15:31:02.626Z,99765.53
2022-10-08T15:33:29.279Z,99762.97
2022-10-08T15:35:55.992Z,99760.44
2022-10-08T15:38:22.686Z,99767.44
2022-10-08T15:40:49.297Z,99757.88
2022-10-08T15:43:15.872Z,99764.81
2022-10-08T15:45:43.105Z,99763.97
2022-10-08T15:48:13.206Z,99759.66
2022-10-08T15:50:39.843Z,99764.06
2022-10-08T15:53:07.273Z,99758.84
2022-10-08T15:55:34.105Z,99757.09
2022-10-08T15:58:00.733Z,99755.38
2022-10-08T16:00:27.356Z,99753.72
2022-10-08T16:02:55.109Z,99742.50
2022-10-08T16:05:21.925Z,99749.41
2022-10-08T16:07:48.512Z,99748.53
2022-10-08T16:10:15.123Z,99753.78
2022-10-08T16:12:41.725Z,99762.44
2022-10-08T16:15:09.470Z,99759.81
2022-10-08T16:17:36.050Z,99755.47
2022-10-08T16:20:02.731Z,99745.16
2022-10-08T16:22:30.063Z,99745.91
2022-10-08T16:24:56.750Z,99746.81
2022-10-08T16:27:23.399Z,99750.25
2022-10-08T16:29:49.966Z,99746.72
2022-10-08T16:32:16.597Z,99742.47
2022-10-08T16:34:45.136Z,99743.31
2022-10-08T16:37:12.684Z,99742.44
2022-10-08T16:39:39.276Z,99745.03
2022-10-08T16:42:05.898Z,99747.56
2022-10-08T16:44:32.561Z,99748.41
2022-10-08T16:46:59.158Z,99744.03
2022-10-08T16:49:26.940Z,99738.94
2022-10-08T16:51:58.392Z,99733.66
2022-10-08T16:54:25.166Z,99739.72
2022-10-08T16:56:51.770Z,99737.16
2022-10-08T16:59:20.617Z,99738.09
2022-10-08T17:01:48.812Z,99738.06
2022-10-08T17:04:16.216Z,99731.13
2022-10-08T17:06:46.238Z,99734.56
2022-10-08T17:09:12.829Z,99719.00
2022-10-08T17:11:40.093Z,99729.47
2022-10-08T17:14:07.823Z,99726.00
2022-10-08T17:16:35.649Z,99715.59
2022-10-08T17:19:02.492Z,99713.84
2022-10-08T17:21:29.887Z,99713.88
2022-10-08T17:23:57.579Z,99727.78
2022-10-08T17:26:24.638Z,99717.41
2022-10-08T17:28:51.976Z,99716.59
2022-10-08T17:31:24.614Z,99722.72
2022-10-08T17:33:51.370Z,99719.28
2022-10-08T17:36:19.684Z,99709.72
2022-10-08T17:38:47.346Z,99714.09
2022-10-08T17:41:16.279Z,99708.03
2022-10-08T17:43:43.546Z,99704.63
2022-10-08T17:46:24.760Z,99701.97
2022-10-08T17:48:51.750Z,99712.41
2022-10-08T17:51:19.429Z,99703.78
2022-10-08T17:53:51.057Z,99696.75
2022-10-08T17:56:17.633Z,99698.47
2022-10-08T17:58:44.308Z,99692.47
2022-10-08T18:01:15.541Z,99696.91
2022-10-08T18:03:43.998Z,99681.25
2022-10-08T18:06:11.565Z,99688.22
2022-10-08T18:08:38.408Z,99696.84
2022-10-08T18:11:06.469Z,99685.63
2022-10-08T18:13:33.894Z,99688.31
2022-10-08T18:16:07.197Z,99682.25
2022-10-08T18:18:34.131Z,99690.09
2022-10-08T18:21:01.793Z,99680.66
2022-10-08T18:23:29.616Z,99684.91
2022-10-08T18:26:06.625Z,99676.25
2022-10-08T18:28:33.359Z,99675.41
2022-10-08T18:31:07.169Z,99669.34
2022-10-08T18:33:34.577Z,99681.53
2022-10-08T18:36:11.639Z,99677.19
2022-10-08T18:38:38.968Z,99675.34
2022-10-08T18:41:22.519Z,99674.50
2022-10-08T18:43:49.430Z,99674.53
2022-10-08T18:46:18.095Z,99676.25
2022-10-08T18:48:45.050Z,99678.03
2022-10-08T18:51:17.026Z,99684.97
2022-10-08T18:53:44.305Z,99682.41
2022-10-08T18:56:15.458Z,99680.63
2022-10-08T18:58:42.581Z,99691.94
2022-10-08T19:01:23.441Z,99684.13
2022-10-08T19:03:54.854Z,99681.53
2022-10-08T19:06:22.680Z,99688.44
2022-10-08T19:08:49.608Z,99697.16
2022-10-08T19:11:17.498Z,99692.03
2022-10-08T19:13:44.706Z,99685.16
2022-10-08T19:16:15.172Z,99686.94
2022-10-08T19:18:42.850Z,99690.44
2022-10-08T19:21:10.910Z,99678.38
2022-10-08T19:23:38.066Z,99681.81
2022-10-08T19:26:05.504Z,99690.50
2022-10-08T19:28:32.796Z,99690.50
2022-10-08T19:30:59.509Z,99687.16
2022-10-08T19:33:26.247Z,99678.47
2022-10-08T19:35:52.888Z,99685.47
2022-10-08T19:38:19.497Z,99697.59
2022-10-08T19:40:46.122Z,99693.25
2022-10-08T19:43:13.907Z,99692.41
2022-10-08T19:45:40.959Z,99696.75
2022-10-08T19:48:07.581Z,99698.47
2022-10-08T19:50:35.397Z,99708.03
2022-10-08T19:53:02.244Z,99695.06
2022-10-08T19:55:28.853Z,99702.00
2022-10-08T19:57:55.617Z,99704.56
2022-10-08T20:00:22.256Z,99705.47
2022-10-08T20:02:49.126Z,99704.63
2022-10-08T20:05:16.002Z,99707.22
2022-10-08T20:07:42.934Z,99707.22
2022-10-08T20:10:09.804Z,99702.88
2022-10-08T20:12:37.681Z,99702.03
2022-10-08T20:15:04.523Z,99686.47
2022-10-08T20:17:31.310Z,99690.75
2022-10-08T20:20:09.638Z,99693.41
2022-10-08T20:22:44.488Z,99694.25
2022-10-08T20:25:11.148Z,99696.00
2022-10-08T20:27:37.825Z,99690.81
2022-10-08T20:30:05.076Z,99690.84
2022-10-08T20:32:31.679Z,99687.41
2022-10-08T20:34:58.277Z,99690.00
2022-10-08T20:37:24.895Z,99677.91
2022-10-08T20:39:51.485Z,99682.22
2022-10-08T20:42:18.055Z,99690.91
2022-10-08T20:44:44.660Z,99690.06
2022-10-08T20:47:11.275Z,99684.03
2022-10-08T20:49:37.883Z,99694.38
2022-10-08T20:52:05.192Z,99685.75
2022-10-08T20:54:32.013Z,99677.13
2022-10-08T20:56:58.633Z,99676.28
2022-10-08T20:59:25.381Z,99682.34
2022-10-08T21:01:52.579Z,99675.44
2022-10-08T21:04:20.219Z,99673.72
2022-10-08T21:06:48.641Z,99684.09
2022-10-08T21:09:15.862Z,99683.19
2022-10-08T21:11:42.668Z,99693.56
2022-10-08T21:14:10.171Z,99672.88
2022-10-08T21:16:38.099Z,99676.31
2022-10-08T21:19:06.240Z,99682.34
2022-10-08T21:21:33.437Z,99675.47
2022-10-08T21:24:00.412Z,99663.38
2022-10-08T21:26:28.608Z,99667.69
2022-10-08T21:28:56.622Z,99668.53
2022-10-08T21:31:24.040Z,99667.69
2022-10-08T21:33:51.453Z,99663.41
2022-10-08T21:36:19.602Z,99663.41
2022-10-08T21:38:46.194Z,99663.41
2022-10-08T21:41:14.002Z,99659.94
2022-10-08T21:43:42.066Z,99659.97
2022-10-08T21:46:10.107Z,99667.75
2022-10-08T21:48:37.308Z,99660.84
2022-10-08T21:51:08.740Z,99674.66
2022-10-08T21:53:36.414Z,99673.81
2022-10-08T21:56:04.866Z,99666.91
2022-10-08T21:58:34.961Z,99661.72
2022-10-08T22:01:01.668Z,99661.72
2022-10-08T22:03:28.368Z,99664.31
2022-10-08T22:05:56.385Z,99666.03
2022-10-08T22:08:24.448Z,99666.88
2022-10-08T22:10:51.357Z,99661.72
2022-10-08T22:13:18.699Z,99654.81
2022-10-08T22:15:52.465Z,99659.13
2022-10-08T22:18:19.134Z,99657.41
2022-10-08T22:20:46.049Z,99653.97
2022-10-08T22:23:12.812Z,99645.34
2022-10-08T22:25:39.423Z,99642.75
2022-10-08T22:28:06.150Z,99644.47
2022-10-08T22:30:37.439Z,99638.41
2022-10-08T22:33:04.151Z,99633.28
2022-10-08T22:35:32.080Z,99634.13
2022-10-08T22:37:58.940Z,99644.47
2022-10-08T22:40:25.647Z,99647.94
2022-10-08T22:42:52.307Z,99633.25
2022-10-08T22:45:18.907Z,99632.41
2022-10-08T22:47:46.396Z,99635.84
2022-10-08T22:50:13.276Z,99627.22
2022-10-08T22:52:39.960Z,99628.97
2022-10-08T22:55:06.728Z,99622.03
2022-10-08T22:57:33.326Z,99626.34
2022-10-08T22:59:59.954Z,99628.94
2022-10-08T23:02:26.624Z,99622.94
2022-10-08T23:04:53.254Z,99616.88
2022-10-08T23:07:19.864Z,99618.63
2022-10-08T23:09:46.456Z,99620.34
2022-10-08T23:12:13.053Z,99608.28
2022-10-08T23:14:39.826Z,99607.41
2022-10-08T23:17:06.431Z,99602.19
2022-10-08T23:19:33.044Z,99605.66
2022-10-08T23:21:59.676Z,99610.88
2022-10-08T23:24:26.285Z,99599.63
2022-10-08T23:26:52.995Z,99597.03
2022-10-08T23:29:19.583Z,99598.78
2022-10-08T23:31:46.334Z,99588.44
2022-10-08T23:34:13.125Z,99594.47
2022-10-08T23:36:41.055Z,99582.38
2022-10-08T23:39:08.592Z,99583.28
2022-10-08T23:41:35.588Z,99580.66
2022-10-08T23:44:02.240Z,99572.06
2022-10-08T23:46:29.861Z,99570.31
2022-10-08T23:48:57.273Z,99577.25
2022-10-08T23:51:24.675Z,99566.03
2022-10-08T23:53:52.027Z,99577.22
2022-10-08T23:56:19.083Z,99575.53
2022-10-08T23:58:45.716Z,99576.38
